Alpine, Arkansas
Current Conditions -  °F | °C
As of 11:56 PM on Friday 28 Nov 2014 (Local Time) from KADF Reporting Station
Broken Clouds Broken Clouds  
Wind Chill:   Ceiling: 4400
Heat Index:   Visibility: 10mi
Dew Point:   Wind: 5mph
Humidity: 83%   Direction: 190°S
Pressure: 30.06"   Gusts: NA
Location:  34.23°N, 93.38°W
Report Text: KADF 290556Z AUTO 19004KT 10SM BKN044 08/06 A3006 RMK AO2 58010 T00830055 10094 20055 401721027 BKN V SCT SLP193
Loading
Personal Weather Stations






























Interactive Weather Map New forecast layout! Learn more

10-Day Weather Forecast

Advertisements
Track Severe Weather on mobile